OIBB

Details ICAO OIBB (BUZ)
Name BUSHEHR
Region Iran
Timezone Asia/Tehran (UTC+3.5)
Plans Departing 17
Arriving 19
Stats Elevation 68 ft / 21 m (AMSL)
Location 28.944853° 50.834626°
Runways 2
Magnetic Variation 3.223° E
Sunrise 2017-12-14 03:23:18 UTC / 2017-12-14 06:53:18 Local
Sunset 2017-12-14 13:42:03 UTC / 2017-12-14 17:12:03 Local
Advertisement - Login to hide

Runways

ID Width Length Bearing (true) Bearing (mag) Surface Threshold Offset Overrun Length
13L 148 ft / 45 m 14,673 ft / 4,472 m 132.11° 128.89° Asphalt 0 ft / 0 m 970 ft / 296 m
13R 148 ft / 45 m 14,673 ft / 4,473 m 132.12° 128.90° Asphalt 0 ft / 0 m 984 ft / 300 m
31L 148 ft / 45 m 14,673 ft / 4,473 m 312.13° 308.91° Asphalt 0 ft / 0 m 987 ft / 301 m
31R 148 ft / 45 m 14,673 ft / 4,472 m 312.13° 308.91° Asphalt 0 ft / 0 m 982 ft / 299 m

Map

Weather


0- 5 10 15 20 25 30 35+ Temperature / ° C

Clouds and Precipitation
Forecast for 2017-12-14 00:00 UTC. Updated an hour ago

Ground ~20,000 ft ~40,000 ft Winds

METAR

OIBB 132352Z 09004KT 6000 NSC 13/09 Q1016 A3001

TAF

Not found

Frequencies

Recorded 126.20 MHz ATIS
Tower 122.50 MHz TWR
Approach 131.40 MHz APP
Tower 121.90 MHz TWR
Tower 119.70 MHz TWR
Approach 122.20 MHz APP
Warning: Do not use this data for real-world aviation or navigation. No guarantee of current accuracy is given.